Time;durP1;ratioP1;P1;durP2;ratioP2;P2;SDS_P1;SDS_P2;PMS_P1;PMS_P2;Temp;Humidity;BMP_temperature;BMP_pressure;BME280_temperature;BME280_humidity;BME280_pressure;Samples;Min_cycle;Max_cycle;Signal;HPM_P1;HPM_P2
2022/05/15 00:00:38;;;;;;;15.25;5.97;;;;;;;;;;5035973;28;20193;-59
2022/05/15 00:03:07;;;;;;;16.30;5.65;;;;;;;;;;5035865;28;20296;-58
2022/05/15 00:05:34;;;;;;;21.00;5.63;;;;;;;;;;5034812;28;20228;-58
2022/05/15 00:08:03;;;;;;;18.77;5.55;;;;;;;;;;5035124;28;20578;-58
2022/05/15 00:10:30;;;;;;;15.27;5.25;;;;;;;;;;5035185;28;20255;-59
2022/05/15 00:12:57;;;;;;;14.80;5.72;;;;;;;;;;5035965;28;20200;-58
2022/05/15 00:15:25;;;;;;;13.90;5.47;;;;;;;;;;5035516;28;20209;-59
2022/05/15 00:17:51;;;;;;;21.88;6.45;;;;;;;;;;5035674;28;20275;-58
2022/05/15 00:20:19;;;;;;;13.90;5.57;;;;;;;;;;5035657;28;20209;-58
2022/05/15 00:22:45;;;;;;;18.30;6.18;;;;;;;;;;5035410;28;20205;-58
2022/05/15 00:25:12;;;;;;;18.60;5.68;;;;;;;;;;5034998;28;20228;-58
2022/05/15 00:27:39;;;;;;;17.60;6.15;;;;;;;;;;5035192;28;20640;-58
2022/05/15 00:30:07;;;;;;;17.45;5.90;;;;;;;;;;5035260;28;20302;-57
2022/05/15 00:32:34;;;;;;;14.65;5.40;;;;;;;;;;5035071;28;20207;-58
2022/05/15 00:35:04;;;;;;;18.65;5.88;;;;;;;;;;5035023;28;20259;-58
2022/05/15 00:37:30;;;;;;;20.35;6.47;;;;;;;;;;5035144;28;20208;-58
2022/05/15 00:39:58;;;;;;;17.35;6.55;;;;;;;;;;5035029;28;20216;-58
2022/05/15 00:42:26;;;;;;;13.23;5.90;;;;;;;;;;5034864;28;20196;-58
2022/05/15 00:44:53;;;;;;;15.75;5.95;;;;;;;;;;5034256;28;20351;-58
2022/05/15 00:47:21;;;;;;;17.77;6.10;;;;;;;;;;5034992;28;20212;-58
2022/05/15 00:49:49;;;;;;;20.23;6.45;;;;;;;;;;5034657;28;20703;-56
2022/05/15 00:52:19;;;;;;;22.55;5.60;;;;;;;;;;5017837;28;20240;-58
2022/05/15 00:54:50;;;;;;;15.55;5.72;;;;;;;;;;5033918;28;20207;-58
2022/05/15 00:57:29;;;;;;;14.27;5.82;;;;;;;;;;5034053;28;20212;-59
2022/05/15 01:00:03;;;;;;;20.40;6.25;;;;;;;;;;5033937;28;20270;-58
2022/05/15 01:02:35;;;;;;;16.90;6.30;;;;;;;;;;5033784;28;20212;-57
2022/05/15 01:05:03;;;;;;;17.95;6.60;;;;;;;;;;5033255;28;20817;-57
2022/05/15 01:07:30;;;;;;;16.88;6.45;;;;;;;;;;5033701;28;20773;-59
2022/05/15 01:09:59;;;;;;;15.95;6.38;;;;;;;;;;5033816;28;20228;-58
2022/05/15 01:12:27;;;;;;;16.83;6.72;;;;;;;;;;5017361;28;20271;-58
2022/05/15 01:14:54;;;;;;;14.15;6.05;;;;;;;;;;5016997;28;20694;-58
2022/05/15 01:17:21;;;;;;;19.38;5.97;;;;;;;;;;5033292;28;20652;-56
2022/05/15 01:19:48;;;;;;;20.73;6.38;;;;;;;;;;5033463;28;20220;-58
2022/05/15 01:22:15;;;;;;;20.58;6.18;;;;;;;;;;5033406;28;20287;-58
2022/05/15 01:24:43;;;;;;;17.95;5.93;;;;;;;;;;5033542;28;20204;-58
2022/05/15 01:27:13;;;;;;;14.50;5.78;;;;;;;;;;5033522;28;20211;-58
2022/05/15 01:29:44;;;;;;;15.35;5.70;;;;;;;;;;5032337;28;20628;-58
2022/05/15 01:32:13;;;;;;;13.85;5.90;;;;;;;;;;5033355;28;20212;-59
2022/05/15 01:34:40;;;;;;;24.95;6.60;;;;;;;;;;5033943;28;20197;-58
2022/05/15 01:37:08;;;;;;;14.68;6.30;;;;;;;;;;5032353;28;20196;-58
2022/05/15 01:39:36;;;;;;;14.25;6.53;;;;;;;;;;5033214;28;20205;-58
2022/05/15 01:42:03;;;;;;;16.88;6.63;;;;;;;;;;5033349;28;20580;-58
2022/05/15 01:44:31;;;;;;;13.65;6.22;;;;;;;;;;5033092;28;20254;-58
2022/05/15 01:46:58;;;;;;;17.35;6.10;;;;;;;;;;5033084;28;20208;-57
2022/05/15 01:49:25;;;;;;;18.70;6.32;;;;;;;;;;5032997;28;20639;-58
2022/05/15 01:51:53;;;;;;;15.18;6.55;;;;;;;;;;5032883;28;20275;-58
2022/05/15 01:54:21;;;;;;;18.27;6.78;;;;;;;;;;5033055;28;20201;-58
2022/05/15 01:56:48;;;;;;;18.50;6.57;;;;;;;;;;5032665;28;20197;-58
2022/05/15 01:59:17;;;;;;;13.88;7.00;;;;;;;;;;5032707;28;20295;-57
2022/05/15 02:01:45;;;;;;;19.17;6.25;;;;;;;;;;5032916;28;20270;-58
2022/05/15 02:04:12;;;;;;;14.98;6.13;;;;;;;;;;5032937;28;20204;-57
2022/05/15 02:06:39;;;;;;;16.13;6.45;;;;;;;;;;5032913;28;20207;-58
2022/05/15 02:09:07;;;;;;;18.52;6.30;;;;;;;;;;5032580;28;20263;-59
2022/05/15 02:11:34;;;;;;;21.33;6.47;;;;;;;;;;5033283;28;20217;-58
2022/05/15 02:14:02;;;;;;;15.98;6.20;;;;;;;;;;5032455;28;20204;-58
2022/05/15 02:16:29;;;;;;;17.58;6.50;;;;;;;;;;5032315;28;20209;-56
2022/05/15 02:18:56;;;;;;;17.83;6.45;;;;;;;;;;5033491;28;20200;-59
2022/05/15 02:21:23;;;;;;;22.20;6.53;;;;;;;;;;5033249;28;20589;-58
2022/05/15 02:23:50;;;;;;;14.82;5.93;;;;;;;;;;5033552;28;20204;-58
2022/05/15 02:26:18;;;;;;;18.20;6.20;;;;;;;;;;5032688;28;20205;-58
2022/05/15 02:28:45;;;;;;;14.95;6.68;;;;;;;;;;5032306;28;20212;-58
2022/05/15 02:31:13;;;;;;;17.42;6.68;;;;;;;;;;5032416;28;20298;-58
2022/05/15 02:33:41;;;;;;;13.90;5.70;;;;;;;;;;5032542;28;20209;-58
2022/05/15 02:36:09;;;;;;;17.10;6.07;;;;;;;;;;5032323;28;20215;-58
2022/05/15 02:38:37;;;;;;;19.52;6.55;;;;;;;;;;5032252;28;20267;-58
2022/05/15 02:41:04;;;;;;;15.48;6.28;;;;;;;;;;5033217;28;20212;-58
2022/05/15 02:43:31;;;;;;;17.58;6.32;;;;;;;;;;5016397;28;20666;-58
2022/05/15 02:45:58;;;;;;;16.90;6.75;;;;;;;;;;5031833;28;20640;-58
2022/05/15 02:51:13;;;;;;;21.10;6.78;;;;;;;;;;5035748;28;20244;-55
2022/05/15 02:53:42;;;;;;;16.73;6.60;;;;;;;;;;5036797;28;20308;-58
2022/05/15 02:56:13;;;;;;;14.07;6.28;;;;;;;;;;5037009;28;20205;-58
2022/05/15 02:58:40;;;;;;;16.65;6.07;;;;;;;;;;5036007;28;20205;-58
2022/05/15 03:01:08;;;;;;;18.58;6.32;;;;;;;;;;5036782;28;20229;-57
2022/05/15 03:03:35;;;;;;;14.00;6.03;;;;;;;;;;5035774;28;20740;-58
2022/05/15 03:06:04;;;;;;;20.08;7.05;;;;;;;;;;5036816;28;20219;-58
2022/05/15 03:08:33;;;;;;;16.05;6.20;;;;;;;;;;5036768;28;20205;-58
2022/05/15 03:11:00;;;;;;;20.83;6.60;;;;;;;;;;5036726;28;20255;-58
2022/05/15 03:13:27;;;;;;;15.75;6.13;;;;;;;;;;5036636;28;20212;-57
2022/05/15 03:15:54;;;;;;;16.73;5.85;;;;;;;;;;5036149;28;20266;-58
2022/05/15 03:18:21;;;;;;;11.15;6.40;;;;;;;;;;5035696;28;20204;-57
2022/05/15 03:20:49;;;;;;;15.40;6.07;;;;;;;;;;5036600;28;20212;-58
2022/05/15 03:23:16;;;;;;;13.98;6.13;;;;;;;;;;5036604;28;20255;-58
2022/05/15 03:25:43;;;;;;;16.15;5.93;;;;;;;;;;5036638;28;20274;-58
2022/05/15 03:28:10;;;;;;;14.52;6.00;;;;;;;;;;5036285;28;20667;-57
2022/05/15 03:30:39;;;;;;;11.45;5.13;;;;;;;;;;5035511;28;20217;-59
2022/05/15 03:33:08;;;;;;;12.60;5.40;;;;;;;;;;5019326;28;20204;-58
2022/05/15 03:35:36;;;;;;;15.85;5.32;;;;;;;;;;5035692;28;20200;-58
2022/05/15 03:38:04;;;;;;;15.40;6.20;;;;;;;;;;5035322;28;20547;-57
2022/05/15 03:40:32;;;;;;;13.95;5.55;;;;;;;;;;5036215;28;20201;-58
2022/05/15 03:42:59;;;;;;;13.98;5.95;;;;;;;;;;5035271;28;20717;-58
2022/05/15 03:45:26;;;;;;;15.77;6.45;;;;;;;;;;5035225;28;20278;-59
2022/05/15 03:47:55;;;;;;;13.88;6.30;;;;;;;;;;5035027;28;20228;-58
2022/05/15 03:50:24;;;;;;;15.27;6.57;;;;;;;;;;5035195;28;20212;-57
2022/05/15 03:52:51;;;;;;;14.90;6.13;;;;;;;;;;5034828;28;20251;-58
2022/05/15 03:55:18;;;;;;;15.85;6.30;;;;;;;;;;5035414;28;20266;-59
2022/05/15 03:57:46;;;;;;;14.73;6.10;;;;;;;;;;5035696;28;20639;-59
2022/05/15 04:00:15;;;;;;;11.88;5.63;;;;;;;;;;5034132;28;20213;-57
2022/05/15 04:02:43;;;;;;;15.38;6.22;;;;;;;;;;5035752;28;20227;-57
2022/05/15 04:05:10;;;;;;;12.55;5.50;;;;;;;;;;5035932;28;20254;-58
2022/05/15 04:07:45;;;;;;;19.27;6.00;;;;;;;;;;5034857;28;20201;-58
2022/05/15 04:10:13;;;;;;;16.40;5.82;;;;;;;;;;5034662;28;20192;-58
2022/05/15 04:12:41;;;;;;;15.90;6.57;;;;;;;;;;5035509;28;20647;-59
2022/05/15 04:15:08;;;;;;;15.05;5.90;;;;;;;;;;5034665;28;20591;-58
2022/05/15 04:17:43;;;;;;;13.38;5.40;;;;;;;;;;5034597;28;20205;-58
2022/05/15 04:20:12;;;;;;;16.27;5.80;;;;;;;;;;5034530;28;20287;-59
2022/05/15 04:22:40;;;;;;;14.98;5.32;;;;;;;;;;5034638;28;20270;-58
2022/05/15 04:25:08;;;;;;;12.10;5.35;;;;;;;;;;5033914;28;20205;-59
2022/05/15 04:27:35;;;;;;;11.88;5.25;;;;;;;;;;5034637;28;20205;-58
2022/05/15 04:30:02;;;;;;;16.10;5.28;;;;;;;;;;5035280;28;20267;-58
2022/05/15 04:32:29;;;;;;;13.60;5.30;;;;;;;;;;5035295;28;20278;-58
2022/05/15 04:34:56;;;;;;;14.07;5.00;;;;;;;;;;5035219;28;20208;-57
2022/05/15 04:37:23;;;;;;;16.40;5.95;;;;;;;;;;5034976;28;20266;-58
2022/05/15 04:39:50;;;;;;;11.43;4.82;;;;;;;;;;5034948;28;20204;-57
2022/05/15 04:42:17;;;;;;;16.27;5.25;;;;;;;;;;5034910;28;20247;-57
2022/05/15 04:44:45;;;;;;;16.17;6.15;;;;;;;;;;5032352;28;20201;-60
2022/05/15 04:47:13;;;;;;;13.25;5.28;;;;;;;;;;5031563;28;20296;-60
2022/05/15 04:49:40;;;;;;;11.18;4.78;;;;;;;;;;5023720;28;20209;-61
2022/05/15 04:52:07;;;;;;;11.02;4.97;;;;;;;;;;5028506;28;20256;-59
2022/05/15 04:54:34;;;;;;;12.35;5.15;;;;;;;;;;5019026;28;20252;-59
2022/05/15 04:57:01;;;;;;;16.75;5.28;;;;;;;;;;5015422;28;20198;-59
2022/05/15 04:59:28;;;;;;;14.30;5.25;;;;;;;;;;5025159;28;20567;-59
2022/05/15 05:01:55;;;;;;;17.77;4.70;;;;;;;;;;5045268;28;20251;-61
2022/05/15 05:04:21;;;;;;;19.55;5.63;;;;;;;;;;5022648;28;20259;-58
2022/05/15 05:06:49;;;;;;;15.77;5.05;;;;;;;;;;5045711;28;20285;-58
2022/05/15 05:09:16;;;;;;;13.50;4.60;;;;;;;;;;5040796;28;20223;-59
2022/05/15 05:11:43;;;;;;;15.30;5.10;;;;;;;;;;5040455;28;20252;-61
2022/05/15 05:14:10;;;;;;;11.35;4.82;;;;;;;;;;5042283;28;20233;-56
2022/05/15 05:16:37;;;;;;;10.35;4.55;;;;;;;;;;5029807;28;20298;-60
2022/05/15 05:19:04;;;;;;;16.08;5.25;;;;;;;;;;5026972;28;20232;-59
2022/05/15 05:21:32;;;;;;;17.63;5.00;;;;;;;;;;5017389;28;20287;-59
2022/05/15 05:23:59;;;;;;;15.55;5.13;;;;;;;;;;5013653;28;20280;-57
2022/05/15 05:26:26;;;;;;;13.98;4.57;;;;;;;;;;5014024;28;20287;-58
2022/05/15 05:28:54;;;;;;;10.13;3.88;;;;;;;;;;5026715;28;20659;-58
2022/05/15 05:31:21;;;;;;;13.95;3.45;;;;;;;;;;5034049;28;20252;-58
2022/05/15 05:33:48;;;;;;;9.45;3.42;;;;;;;;;;5031643;28;20276;-59
2022/05/15 05:36:15;;;;;;;10.75;3.47;;;;;;;;;;5034121;28;20255;-60
2022/05/15 05:38:42;;;;;;;10.88;2.85;;;;;;;;;;5034645;28;20247;-60
2022/05/15 05:41:09;;;;;;;8.75;2.92;;;;;;;;;;5034828;28;20252;-60
2022/05/15 05:43:36;;;;;;;11.65;3.08;;;;;;;;;;5039314;28;20678;-57
2022/05/15 05:46:03;;;;;;;10.55;3.30;;;;;;;;;;5053745;28;20248;-60
2022/05/15 05:48:30;;;;;;;8.52;3.05;;;;;;;;;;5054195;28;20231;-59
2022/05/15 05:50:58;;;;;;;12.98;3.60;;;;;;;;;;5053855;28;20535;-59
2022/05/15 05:53:25;;;;;;;11.45;3.50;;;;;;;;;;5054160;28;20228;-59
2022/05/15 05:55:52;;;;;;;7.80;2.90;;;;;;;;;;5054372;28;20220;-59
2022/05/15 05:58:19;;;;;;;10.60;3.20;;;;;;;;;;5053229;28;20228;-58
2022/05/15 06:00:46;;;;;;;11.25;3.13;;;;;;;;;;5053784;28;20228;-59
2022/05/15 06:05:59;;;;;;;9.95;2.50;;;;;;;;;;5053817;28;20286;-58
2022/05/15 06:08:28;;;;;;;11.23;3.38;;;;;;;;;;5054163;28;20662;-58
2022/05/15 06:10:55;;;;;;;5.97;2.80;;;;;;;;;;5053819;28;20257;-60
2022/05/15 06:13:23;;;;;;;12.80;2.72;;;;;;;;;;5049209;28;20228;-59
2022/05/15 06:15:50;;;;;;;13.57;3.03;;;;;;;;;;5033902;28;20311;-59
2022/05/15 06:18:17;;;;;;;11.02;2.88;;;;;;;;;;5033894;28;20307;-59
2022/05/15 06:20:44;;;;;;;11.02;3.40;;;;;;;;;;5033961;28;20677;-58
2022/05/15 06:23:11;;;;;;;8.13;3.20;;;;;;;;;;5033566;28;20686;-58
2022/05/15 06:25:38;;;;;;;11.20;2.97;;;;;;;;;;5037917;28;20710;-59
2022/05/15 06:28:06;;;;;;;8.77;2.47;;;;;;;;;;5037430;28;20232;-60
2022/05/15 06:30:32;;;;;;;12.48;2.83;;;;;;;;;;5037787;28;20319;-57
2022/05/15 06:32:59;;;;;;;7.90;2.45;;;;;;;;;;5037498;28;20774;-57
2022/05/15 06:35:27;;;;;;;6.18;2.25;;;;;;;;;;5037821;28;20235;-61
2022/05/15 06:37:53;;;;;;;10.48;2.40;;;;;;;;;;5036424;28;20225;-60
2022/05/15 06:40:21;;;;;;;9.15;2.40;;;;;;;;;;5037316;28;20636;-59
2022/05/15 06:42:48;;;;;;;7.90;2.20;;;;;;;;;;5036907;28;20687;-59
2022/05/15 06:45:15;;;;;;;10.27;2.22;;;;;;;;;;5036821;28;20679;-59
2022/05/15 06:47:42;;;;;;;5.38;1.60;;;;;;;;;;5036969;28;20327;-58
2022/05/15 06:50:10;;;;;;;5.00;1.55;;;;;;;;;;5037035;28;20228;-59
2022/05/15 06:52:39;;;;;;;10.48;2.88;;;;;;;;;;5037145;28;20667;-59
2022/05/15 06:55:09;;;;;;;10.93;2.80;;;;;;;;;;5036929;28;20637;-59
2022/05/15 06:57:37;;;;;;;12.38;2.83;;;;;;;;;;5037024;28;20232;-59
2022/05/15 07:00:08;;;;;;;13.55;3.08;;;;;;;;;;5037095;28;20279;-57
2022/05/15 07:02:34;;;;;;;7.82;2.65;;;;;;;;;;5036840;28;20240;-58
2022/05/15 07:05:04;;;;;;;9.38;2.78;;;;;;;;;;5037179;28;20229;-58
2022/05/15 07:07:31;;;;;;;9.77;2.40;;;;;;;;;;5036856;28;20671;-59
2022/05/15 07:09:58;;;;;;;6.68;1.40;;;;;;;;;;5036936;28;20269;-58
2022/05/15 07:12:25;;;;;;;10.63;2.30;;;;;;;;;;5036036;28;20306;-59
2022/05/15 07:14:52;;;;;;;6.70;1.55;;;;;;;;;;5053147;28;20231;-59
2022/05/15 07:17:19;;;;;;;9.25;1.73;;;;;;;;;;5056683;28;20228;-58
2022/05/15 07:19:46;;;;;;;5.97;1.60;;;;;;;;;;5056858;28;20227;-60
2022/05/15 07:22:14;;;;;;;7.20;1.52;;;;;;;;;;5056650;28;20228;-59
2022/05/15 07:24:41;;;;;;;11.35;1.60;;;;;;;;;;5056821;28;20674;-60
2022/05/15 07:27:09;;;;;;;11.52;1.55;;;;;;;;;;5056038;28;20285;-60
2022/05/15 07:29:36;;;;;;;2.83;1.33;;;;;;;;;;5057116;28;20289;-60
2022/05/15 07:32:08;;;;;;;8.13;1.80;;;;;;;;;;5056527;28;20239;-59
2022/05/15 07:34:39;;;;;;;8.25;1.60;;;;;;;;;;5056594;28;20199;-58
2022/05/15 07:37:07;;;;;;;8.32;1.35;;;;;;;;;;5057881;28;20617;-59
2022/05/15 07:39:34;;;;;;;3.63;1.40;;;;;;;;;;5057300;28;20210;-59
2022/05/15 07:42:01;;;;;;;5.40;1.60;;;;;;;;;;5038325;28;20209;-59
2022/05/15 07:44:28;;;;;;;9.30;1.80;;;;;;;;;;5036702;28;20261;-59
2022/05/15 07:46:55;;;;;;;4.88;1.35;;;;;;;;;;5036227;28;20204;-59
2022/05/15 07:49:22;;;;;;;8.57;1.52;;;;;;;;;;5037037;28;20211;-59
2022/05/15 07:51:49;;;;;;;4.97;1.40;;;;;;;;;;5036841;28;20301;-59
2022/05/15 07:54:17;;;;;;;10.48;1.70;;;;;;;;;;5037061;28;20201;-59
2022/05/15 07:56:45;;;;;;;10.25;1.95;;;;;;;;;;5037199;28;20209;-59
2022/05/15 07:59:12;;;;;;;3.45;1.13;;;;;;;;;;5036789;28;20251;-59
2022/05/15 08:01:40;;;;;;;6.35;1.80;;;;;;;;;;5036710;28;20209;-57
2022/05/15 08:04:07;;;;;;;7.05;1.63;;;;;;;;;;5036531;28;20204;-59
2022/05/15 08:09:21;;;;;;;9.95;1.70;;;;;;;;;;5036658;28;20526;-59
2022/05/15 08:11:47;;;;;;;5.60;1.35;;;;;;;;;;5036408;28;20263;-59
2022/05/15 08:14:14;;;;;;;6.90;1.10;;;;;;;;;;5036488;28;20205;-58
2022/05/15 08:16:41;;;;;;;8.73;1.95;;;;;;;;;;5037267;28;20212;-59
2022/05/15 08:25:00;;;;;;;4.55;1.40;;;;;;;;;;5014897;28;20232;-59
2022/05/15 08:27:27;;;;;;;7.55;1.60;;;;;;;;;;5028404;28;20204;-59
2022/05/15 08:29:54;;;;;;;8.95;1.48;;;;;;;;;;5036174;28;20235;-59
2022/05/15 08:32:20;;;;;;;9.73;1.70;;;;;;;;;;5036394;28;20232;-59
2022/05/15 08:34:48;;;;;;;7.40;1.10;;;;;;;;;;5036030;28;20235;-59
2022/05/15 08:37:15;;;;;;;5.55;1.60;;;;;;;;;;5036272;28;20275;-59
2022/05/15 08:39:42;;;;;;;3.53;1.40;;;;;;;;;;5036188;28;20239;-59
2022/05/15 08:42:47;;;;;;;7.72;1.60;;;;;;;;;;5035951;28;20643;-59
2022/05/15 08:45:16;;;;;;;7.38;1.50;;;;;;;;;;5014295;28;20201;-59
2022/05/15 08:47:48;;;;;;;4.40;1.40;;;;;;;;;;4981659;28;20244;-59
2022/05/15 08:50:25;;;;;;;7.57;1.85;;;;;;;;;;5014530;28;20225;-59
2022/05/15 08:52:58;;;;;;;8.77;1.70;;;;;;;;;;5014406;28;20248;-59
2022/05/15 08:55:38;;;;;;;4.90;1.55;;;;;;;;;;5014353;28;20268;-59
2022/05/15 08:58:09;;;;;;;8.27;1.60;;;;;;;;;;5014457;28;20209;-59
2022/05/15 09:00:42;;;;;;;6.70;1.83;;;;;;;;;;4997898;28;20209;-58
2022/05/15 09:03:18;;;;;;;6.13;1.77;;;;;;;;;;5012407;28;20237;-60
2022/05/15 09:06:00;;;;;;;5.95;1.60;;;;;;;;;;5025647;28;20220;-59
2022/05/15 09:09:11;;;;;;;9.55;1.63;;;;;;;;;;5008878;28;20580;-59
2022/05/15 09:12:04;;;;;;;6.97;1.35;;;;;;;;;;5004022;28;20683;-58
2022/05/15 09:14:38;;;;;;;8.90;1.50;;;;;;;;;;5023026;28;20217;-57
2022/05/15 09:17:43;;;;;;;9.25;1.42;;;;;;;;;;5023782;28;20322;-54
2022/05/15 09:20:35;;;;;;;9.63;1.85;;;;;;;;;;5030988;28;20233;-58
2022/05/15 09:23:07;;;;;;;7.90;1.40;;;;;;;;;;5024759;28;20231;-57
2022/05/15 09:25:36;;;;;;;3.08;1.23;;;;;;;;;;5034043;28;20232;-58
2022/05/15 09:28:06;;;;;;;4.70;1.38;;;;;;;;;;5034324;28;20311;-59
2022/05/15 09:30:39;;;;;;;7.28;1.60;;;;;;;;;;5034561;28;20224;-64
2022/05/15 09:33:23;;;;;;;9.98;1.38;;;;;;;;;;5033734;28;20294;-63
2022/05/15 09:35:51;;;;;;;3.78;1.33;;;;;;;;;;5034794;28;20220;-63
2022/05/15 09:38:28;;;;;;;4.07;1.10;;;;;;;;;;5034222;28;20232;-63
2022/05/15 09:44:03;;;;;;;7.65;1.55;;;;;;;;;;5034221;28;20247;-64
2022/05/15 09:46:30;;;;;;;7.32;1.65;;;;;;;;;;5034147;28;20312;-64
2022/05/15 09:49:06;;;;;;;4.88;1.45;;;;;;;;;;5048787;28;20236;-64
2022/05/15 09:51:43;;;;;;;6.95;1.40;;;;;;;;;;5054140;28;20301;-64
2022/05/15 09:54:37;;;;;;;5.35;1.50;;;;;;;;;;5052943;28;20297;-60
2022/05/15 09:57:19;;;;;;;8.45;1.58;;;;;;;;;;5054155;28;20314;-65
2022/05/15 10:00:00;;;;;;;3.17;1.02;;;;;;;;;;5053541;28;20641;-65
2022/05/15 10:02:44;;;;;;;4.43;1.25;;;;;;;;;;5053189;28;20599;-64
2022/05/15 10:05:14;;;;;;;3.60;1.25;;;;;;;;;;5054153;28;20232;-63
2022/05/15 10:07:48;;;;;;;5.47;1.40;;;;;;;;;;5054363;28;20227;-66
2022/05/15 10:10:25;;;;;;;7.47;1.50;;;;;;;;;;5053224;28;20321;-65
2022/05/15 10:12:57;;;;;;;9.18;1.70;;;;;;;;;;5053342;28;20265;-66
2022/05/15 10:15:26;;;;;;;6.32;1.30;;;;;;;;;;5042996;28;20220;-63
2022/05/15 10:17:57;;;;;;;6.22;1.38;;;;;;;;;;5028956;28;20225;-65
2022/05/15 10:20:29;;;;;;;6.15;1.20;;;;;;;;;;5027853;28;20224;-64
2022/05/15 10:23:07;;;;;;;6.03;1.10;;;;;;;;;;5021931;28;20286;-65
2022/05/15 10:25:40;;;;;;;7.75;1.48;;;;;;;;;;5027769;28;20290;-67
2022/05/15 10:28:18;;;;;;;4.70;1.10;;;;;;;;;;5030954;28;20576;-64
2022/05/15 10:31:06;;;;;;;7.97;1.30;;;;;;;;;;5029685;28;20227;-65
2022/05/15 10:33:40;;;;;;;8.35;1.30;;;;;;;;;;5030916;28;20236;-66
2022/05/15 10:36:09;;;;;;;6.75;1.60;;;;;;;;;;5032797;28;20271;-65
2022/05/15 10:38:48;;;;;;;5.25;1.27;;;;;;;;;;5031614;28;20228;-65
2022/05/15 10:41:19;;;;;;;5.05;1.33;;;;;;;;;;5032171;28;20229;-68
2022/05/15 10:44:19;;;;;;;4.20;1.27;;;;;;;;;;5031706;28;20224;-66
2022/05/15 10:46:49;;;;;;;6.53;1.23;;;;;;;;;;5031167;28;20228;-66
2022/05/15 10:49:19;;;;;;;6.18;1.20;;;;;;;;;;5051130;28;20236;-66
2022/05/15 10:52:15;;;;;;;6.13;1.13;;;;;;;;;;5053843;28;20725;-67
2022/05/15 10:58:03;;;;;;;6.20;1.20;;;;;;;;;;5053417;28;20560;-65
2022/05/15 11:00:44;;;;;;;6.03;1.35;;;;;;;;;;5052563;28;20228;-66
2022/05/15 11:03:22;;;;;;;6.18;1.45;;;;;;;;;;5051822;28;20610;-65
2022/05/15 11:06:07;;;;;;;6.45;0.90;;;;;;;;;;5053430;28;20285;-66
2022/05/15 11:08:41;;;;;;;5.22;1.30;;;;;;;;;;5052467;28;20666;-63
2022/05/15 11:11:33;;;;;;;7.78;1.45;;;;;;;;;;5055994;28;20231;-67
2022/05/15 11:14:16;;;;;;;3.88;0.90;;;;;;;;;;5056572;28;20243;-65
2022/05/15 11:17:02;;;;;;;7.28;1.27;;;;;;;;;;5022288;28;20225;-65
2022/05/15 11:19:38;;;;;;;5.47;1.25;;;;;;;;;;5056464;28;20231;-65
2022/05/15 11:22:24;;;;;;;5.57;1.13;;;;;;;;;;5057146;28;20604;-64
2022/05/15 11:25:04;;;;;;;7.68;1.38;;;;;;;;;;5056585;28;20641;-64
2022/05/15 11:27:54;;;;;;;9.63;1.30;;;;;;;;;;5056889;28;20228;-64
2022/05/15 11:30:28;;;;;;;6.95;1.35;;;;;;;;;;5056520;28;20250;-65
2022/05/15 11:32:55;;;;;;;6.60;1.20;;;;;;;;;;5055403;28;20239;-65
2022/05/15 11:35:26;;;;;;;5.80;1.20;;;;;;;;;;5056569;28;20228;-65
2022/05/15 11:37:56;;;;;;;4.47;1.20;;;;;;;;;;5055929;28;20220;-64
2022/05/15 11:40:46;;;;;;;7.43;1.52;;;;;;;;;;5056267;28;20289;-65
2022/05/15 11:43:25;;;;;;;5.60;1.20;;;;;;;;;;5055866;28;20235;-66
2022/05/15 11:45:55;;;;;;;7.35;1.50;;;;;;;;;;5055807;28;20603;-66
2022/05/15 11:48:30;;;;;;;11.68;1.30;;;;;;;;;;5044743;28;20224;-66
2022/05/15 11:50:59;;;;;;;5.13;1.20;;;;;;;;;;5036150;28;20577;-67
2022/05/15 11:53:30;;;;;;;5.07;0.93;;;;;;;;;;5036377;28;20236;-66
2022/05/15 11:55:58;;;;;;;8.52;1.77;;;;;;;;;;5035550;28;20236;-65
2022/05/15 11:58:36;;;;;;;5.18;1.30;;;;;;;;;;5035363;28;20236;-65
2022/05/15 12:01:18;;;;;;;6.10;1.25;;;;;;;;;;5034986;28;20228;-66
2022/05/15 12:03:51;;;;;;;9.68;1.20;;;;;;;;;;5035290;28;20613;-62
2022/05/15 12:06:25;;;;;;;3.38;1.05;;;;;;;;;;5035100;28;20655;-65
2022/05/15 12:09:18;;;;;;;3.13;1.10;;;;;;;;;;5036085;28;20243;-65
2022/05/15 12:11:49;;;;;;;4.90;1.05;;;;;;;;;;5036028;28;20282;-66
2022/05/15 12:14:25;;;;;;;6.32;1.20;;;;;;;;;;5035325;28;20244;-66
2022/05/15 12:16:58;;;;;;;4.93;1.08;;;;;;;;;;5033887;28;20220;-66
2022/05/15 12:19:31;;;;;;;6.07;1.52;;;;;;;;;;5054873;28;20242;-65
2022/05/15 12:22:04;;;;;;;5.90;1.42;;;;;;;;;;5055335;28;20298;-64
2022/05/15 12:24:34;;;;;;;3.47;1.05;;;;;;;;;;5055413;28;20228;-64
2022/05/15 12:27:19;;;;;;;4.35;1.02;;;;;;;;;;5055698;28;20729;-64
2022/05/15 12:29:58;;;;;;;4.57;1.30;;;;;;;;;;5055742;28;20227;-63
2022/05/15 12:32:46;;;;;;;5.35;1.40;;;;;;;;;;5054865;28;20254;-67
2022/05/15 12:35:16;;;;;;;5.63;1.20;;;;;;;;;;5054633;28;20243;-63
2022/05/15 12:38:03;;;;;;;2.90;1.15;;;;;;;;;;5055359;28;20630;-66
2022/05/15 12:40:33;;;;;;;3.58;1.10;;;;;;;;;;5055517;28;20565;-66
2022/05/15 12:43:01;;;;;;;6.82;1.50;;;;;;;;;;5054109;28;20270;-65
2022/05/15 12:45:32;;;;;;;7.60;1.50;;;;;;;;;;5054726;28;20219;-67
2022/05/15 12:48:10;;;;;;;5.20;1.15;;;;;;;;;;5047686;28;20230;-66
2022/05/15 12:51:02;;;;;;;2.33;1.15;;;;;;;;;;5035154;28;20675;-64
2022/05/15 12:53:37;;;;;;;5.50;1.30;;;;;;;;;;5034862;28;20263;-66
2022/05/15 12:56:10;;;;;;;5.05;1.52;;;;;;;;;;5035008;28;20590;-63
2022/05/15 12:58:39;;;;;;;6.60;1.27;;;;;;;;;;5035198;28;20337;-65
2022/05/15 13:01:06;;;;;;;3.85;1.25;;;;;;;;;;5034357;28;20237;-63
2022/05/15 13:03:34;;;;;;;3.05;1.00;;;;;;;;;;5035006;28;20224;-64
2022/05/15 13:06:06;;;;;;;3.90;1.15;;;;;;;;;;5034982;28;20697;-65
2022/05/15 13:08:50;;;;;;;5.97;1.17;;;;;;;;;;5035167;28;20225;-61
2022/05/15 13:11:24;;;;;;;5.05;0.90;;;;;;;;;;5034712;28;20239;-60
2022/05/15 13:13:56;;;;;;;11.88;1.50;;;;;;;;;;5034974;28;20580;-60
2022/05/15 13:16:27;;;;;;;4.72;1.33;;;;;;;;;;5026285;28;20237;-61
2022/05/15 13:18:55;;;;;;;3.17;0.95;;;;;;;;;;5045645;28;20670;-61
2022/05/15 13:21:38;;;;;;;4.07;0.95;;;;;;;;;;5054317;28;20311;-61
2022/05/15 13:24:07;;;;;;;4.35;1.10;;;;;;;;;;5054710;28;20228;-60
2022/05/15 13:26:39;;;;;;;3.85;1.00;;;;;;;;;;5054181;28;20266;-62
2022/05/15 13:29:09;;;;;;;6.07;1.27;;;;;;;;;;5053838;28;20301;-60
2022/05/15 13:31:36;;;;;;;5.13;1.10;;;;;;;;;;5036529;28;20250;-60
2022/05/15 13:34:04;;;;;;;5.10;1.20;;;;;;;;;;5053481;28;20240;-61
2022/05/15 13:36:32;;;;;;;3.20;1.27;;;;;;;;;;5053566;28;20223;-61
2022/05/15 13:44:38;;;;;;;6.50;1.42;;;;;;;;;;5024177;28;20237;-60
2022/05/15 13:47:12;;;;;;;3.67;1.10;;;;;;;;;;5014289;28;20726;-59
2022/05/15 13:49:42;;;;;;;4.80;1.13;;;;;;;;;;5054207;28;20645;-61
2022/05/15 13:52:24;;;;;;;3.85;1.20;;;;;;;;;;5054196;28;20251;-61
2022/05/15 13:54:52;;;;;;;6.88;1.35;;;;;;;;;;5054031;28;20255;-60
2022/05/15 13:57:20;;;;;;;3.33;0.93;;;;;;;;;;5053745;28;20243;-60
2022/05/15 13:59:49;;;;;;;3.45;1.02;;;;;;;;;;5053497;28;20224;-60
2022/05/15 14:02:28;;;;;;;8.23;1.25;;;;;;;;;;5053588;28;20269;-60
2022/05/15 14:04:59;;;;;;;5.20;0.95;;;;;;;;;;5053444;28;20599;-60
2022/05/15 14:07:32;;;;;;;7.32;1.30;;;;;;;;;;5053799;28;20227;-61
2022/05/15 14:10:02;;;;;;;4.85;1.40;;;;;;;;;;5054217;28;20223;-60
2022/05/15 14:12:52;;;;;;;9.02;1.20;;;;;;;;;;5052734;28;20569;-60
2022/05/15 14:15:45;;;;;;;4.35;1.13;;;;;;;;;;5048190;28;20232;-60
2022/05/15 14:18:34;;;;;;;4.97;1.00;;;;;;;;;;5040153;28;20223;-61
2022/05/15 14:21:27;;;;;;;5.70;1.10;;;;;;;;;;5054155;28;20232;-61
2022/05/15 14:23:54;;;;;;;4.22;0.98;;;;;;;;;;5068697;28;20227;-60
2022/05/15 14:26:22;;;;;;;3.88;1.00;;;;;;;;;;5054626;28;20200;-61
2022/05/15 14:28:50;;;;;;;4.38;1.35;;;;;;;;;;5054407;28;20200;-61
2022/05/15 14:31:22;;;;;;;5.25;1.20;;;;;;;;;;5053567;28;20207;-61
2022/05/15 14:33:49;;;;;;;6.80;1.25;;;;;;;;;;5054090;28;20228;-61
2022/05/15 14:36:19;;;;;;;4.47;1.20;;;;;;;;;;5054623;28;20208;-60
2022/05/15 14:38:47;;;;;;;4.72;1.27;;;;;;;;;;5053492;28;20204;-61
2022/05/15 14:41:14;;;;;;;5.95;1.23;;;;;;;;;;5054335;28;20525;-60
2022/05/15 14:43:41;;;;;;;5.80;1.10;;;;;;;;;;5054449;28;20208;-60
2022/05/15 14:46:20;;;;;;;2.97;0.88;;;;;;;;;;5058468;28;20291;-61
2022/05/15 14:48:49;;;;;;;4.53;0.90;;;;;;;;;;5058526;28;20207;-61
2022/05/15 14:51:25;;;;;;;4.50;1.10;;;;;;;;;;5058393;28;20262;-61
2022/05/15 14:53:53;;;;;;;5.88;1.13;;;;;;;;;;5057963;28;20234;-61
2022/05/15 14:56:21;;;;;;;7.28;1.65;;;;;;;;;;5053619;28;20197;-61
2022/05/15 14:58:52;;;;;;;5.80;1.27;;;;;;;;;;5036731;28;20258;-60
2022/05/15 15:01:20;;;;;;;3.83;0.88;;;;;;;;;;5044086;28;20235;-60
2022/05/15 15:03:48;;;;;;;3.72;0.80;;;;;;;;;;5046332;28;20266;-60
2022/05/15 15:06:16;;;;;;;7.97;0.95;;;;;;;;;;5048558;28;20255;-62
2022/05/15 15:08:43;;;;;;;3.85;0.80;;;;;;;;;;5050814;28;20293;-62
2022/05/15 15:11:11;;;;;;;3.50;1.17;;;;;;;;;;5047119;28;20683;-62
2022/05/15 15:13:39;;;;;;;4.65;1.48;;;;;;;;;;5054124;28;20227;-61
2022/05/15 15:16:07;;;;;;;3.97;1.00;;;;;;;;;;5041945;28;20548;-61
2022/05/15 15:18:35;;;;;;;3.78;1.00;;;;;;;;;;5034707;28;20228;-61
2022/05/15 15:21:02;;;;;;;3.65;1.02;;;;;;;;;;5037398;28;20204;-61
2022/05/15 15:23:30;;;;;;;5.85;1.38;;;;;;;;;;5036554;28;20201;-61
2022/05/15 15:25:56;;;;;;;5.65;1.02;;;;;;;;;;5037907;28;20582;-61